Time;durP1;ratioP1;P1;durP2;ratioP2;P2;SDS_P1;SDS_P2;PMS_P1;PMS_P2;Temp;Humidity;BMP_temperature;BMP_pressure;BME280_temperature;BME280_humidity;BME280_pressure;Samples;Min_cycle;Max_cycle;Signal;HPM_P1;HPM_P2
2021/11/25 00:01:03;;;;;;;3.93;3.53;;;;;;;5.99;82.10;100841.81;5154616;27;20203;-76
2021/11/25 00:03:31;;;;;;;4.23;3.60;;;;;;;6.07;82.60;100840.13;5154141;27;20212;-76
2021/11/25 00:05:58;;;;;;;4.60;4.00;;;;;;;6.07;82.26;100840.13;5155035;27;20196;-76
2021/11/25 00:08:24;;;;;;;4.13;3.77;;;;;;;6.10;82.76;100842.72;5154638;27;20246;-76
2021/11/25 00:10:50;;;;;;;3.53;3.23;;;;;;;6.06;82.51;100819.38;5154564;27;20265;-76
2021/11/25 00:13:17;;;;;;;4.00;3.47;;;;;;;6.06;82.78;100822.84;5153873;27;20220;-76
2021/11/25 00:15:43;;;;;;;3.47;3.17;;;;;;;6.04;82.68;100824.56;5154503;27;20256;-76
2021/11/25 00:18:11;;;;;;;3.30;3.00;;;;;;;6.08;82.49;100813.34;5153901;27;20200;-76
2021/11/25 00:20:38;;;;;;;4.50;2.87;;;;;;;6.01;83.19;100798.63;5154258;27;20210;-76
2021/11/25 00:23:05;;;;;;;3.70;3.40;;;;;;;6.07;83.07;100805.59;5154053;27;20253;-76
2021/11/25 00:25:31;;;;;;;3.30;3.00;;;;;;;6.04;82.50;100792.59;5154361;27;20192;-76
2021/11/25 00:27:58;;;;;;;3.20;2.90;;;;;;;6.04;83.48;100787.41;5154035;27;20200;-76
2021/11/25 00:30:24;;;;;;;3.13;2.83;;;;;;;5.97;84.38;100758.88;5153713;27;20242;-75
2021/11/25 00:32:50;;;;;;;3.33;3.03;;;;;;;5.97;83.11;100766.66;5153812;27;20269;-76
2021/11/25 00:35:17;;;;;;;3.40;3.10;;;;;;;5.84;77.38;100912.47;5154128;27;20219;-76
2021/11/25 00:37:45;;;;;;;3.37;3.07;;;;;;;5.92;78.58;100952.25;5154056;27;20261;-76
2021/11/25 00:40:14;;;;;;;3.87;2.97;;;;;;;5.99;78.40;100932.50;5153359;27;20250;-76
2021/11/25 00:42:41;;;;;;;3.67;3.37;;;;;;;6.04;78.16;100948.94;5152991;27;20727;-76
2021/11/25 00:45:09;;;;;;;3.70;3.40;;;;;;;6.08;78.70;100934.28;5153895;27;20197;-75
2021/11/25 00:47:36;;;;;;;3.80;3.50;;;;;;;6.12;78.83;100920.50;5153944;27;20680;-76
2021/11/25 00:50:03;;;;;;;4.17;3.73;;;;;;;6.14;79.72;100890.28;5153583;27;20197;-76
2021/11/25 00:52:29;;;;;;;3.40;2.87;;;;;;;6.15;79.82;100871.28;5153277;27;20196;-76
2021/11/25 00:54:57;;;;;;;3.20;2.90;;;;;;;6.12;79.85;100853.09;5153545;27;20296;-76
2021/11/25 00:57:23;;;;;;;4.33;3.93;;;;;;;6.07;80.33;100844.47;5153658;27;20216;-76
2021/11/25 00:59:51;;;;;;;3.93;2.97;;;;;;;6.06;80.11;100840.13;5153292;27;20226;-76
2021/11/25 01:02:18;;;;;;;3.43;3.13;;;;;;;6.07;80.60;100836.69;5153209;27;20224;-76
2021/11/25 01:04:44;;;;;;;3.90;3.60;;;;;;;6.05;79.44;100846.16;5153504;27;20641;-76
2021/11/25 01:07:11;;;;;;;3.60;3.30;;;;;;;6.00;78.83;100859.06;5153339;27;20197;-76
2021/11/25 01:09:38;;;;;;;8.13;3.10;;;;;;;6.04;80.04;100845.28;5153427;27;20577;-76
2021/11/25 01:12:07;;;;;;;3.43;3.13;;;;;;;6.04;80.04;100821.09;5153020;27;20262;-76
2021/11/25 01:14:35;;;;;;;3.23;2.93;;;;;;;5.97;81.25;100804.66;5153032;27;20218;-76
2021/11/25 01:17:03;;;;;;;3.30;3.00;;;;;;;5.94;81.90;100776.09;5153289;27;20218;-76
2021/11/25 01:19:29;;;;;;;3.07;2.50;;;;;;;5.91;81.17;100784.72;5144856;27;20242;-76
2021/11/25 01:21:56;;;;;;;5.30;3.00;;;;;;;5.91;79.82;100831.38;5152970;27;20634;-76
2021/11/25 01:24:22;;;;;;;2.73;2.53;;;;;;;5.94;80.64;100813.22;5152958;27;20273;-76
2021/11/25 01:26:49;;;;;;;3.07;2.50;;;;;;;5.95;80.23;100825.38;5153456;27;20195;-76
2021/11/25 01:29:16;;;;;;;4.40;2.40;;;;;;;5.93;80.26;100816.69;5152423;27;20196;-75
2021/11/25 01:31:43;;;;;;;2.87;2.63;;;;;;;5.94;80.53;100792.50;5153037;27;20196;-76
2021/11/25 01:34:09;;;;;;;3.17;2.90;;;;;;;5.98;80.25;100803.78;5152979;27;20271;-75
2021/11/25 01:36:36;;;;;;;3.00;2.73;;;;;;;5.99;79.51;100828.00;5152805;27;20224;-76
2021/11/25 01:39:03;;;;;;;4.77;3.27;;;;;;;5.98;79.18;100842.66;5152280;27;20252;-76
2021/11/25 01:41:30;;;;;;;3.03;2.70;;;;;;;5.99;79.50;100830.59;5152875;27;20265;-76
2021/11/25 01:43:56;;;;;;;3.77;2.80;;;;;;;5.97;78.96;100849.56;5152172;27;20216;-76
2021/11/25 01:46:24;;;;;;;2.80;2.60;;;;;;;5.91;79.91;100822.72;5153047;27;20197;-76
2021/11/25 01:48:52;;;;;;;3.30;3.00;;;;;;;5.70;74.85;100968.47;5152532;27;20205;-76
2021/11/25 01:51:20;;;;;;;3.27;2.97;;;;;;;5.77;77.42;100906.38;5152964;27;20192;-76
2021/11/25 01:53:47;;;;;;;2.90;2.57;;;;;;;5.81;79.05;100826.09;5152508;27;20292;-76
2021/11/25 01:56:15;;;;;;;2.70;2.50;;;;;;;5.81;80.15;100792.41;5152707;27;20264;-76
2021/11/25 01:58:42;;;;;;;2.70;2.50;;;;;;;5.84;80.24;100776.91;5152350;27;20201;-76
2021/11/25 02:01:10;;;;;;;2.77;2.57;;;;;;;5.87;80.12;100779.53;5152784;27;20252;-76
2021/11/25 02:03:40;;;;;;;3.00;2.80;;;;;;;5.88;78.83;100817.50;5156607;27;20247;-76
2021/11/25 02:06:08;;;;;;;3.07;2.87;;;;;;;5.89;79.47;100814.94;5157053;27;20200;-76
2021/11/25 02:08:35;;;;;;;3.83;2.70;;;;;;;5.90;78.45;100819.25;5157069;27;20567;-76
2021/11/25 02:11:02;;;;;;;3.00;2.70;;;;;;;5.89;78.92;100827.03;5156664;27;20203;-76
2021/11/25 02:13:29;;;;;;;2.33;2.23;;;;;;;5.87;78.13;100814.06;5156256;27;20661;-76
2021/11/25 02:15:57;;;;;;;3.23;2.83;;;;;;;5.86;78.63;100820.09;5156674;27;20231;-76
2021/11/25 02:18:25;;;;;;;2.87;2.53;;;;;;;5.88;78.62;100830.47;5156864;27;20244;-76
2021/11/25 02:20:56;;;;;;;2.70;2.30;;;;;;;5.84;78.86;100810.59;5156534;27;20657;-76
2021/11/25 02:23:23;;;;;;;2.93;2.10;;;;;;;5.78;79.56;100798.44;5156003;27;20989;-76
2021/11/25 02:25:51;;;;;;;2.13;2.03;;;;;;;5.78;79.30;100780.31;5156853;27;20199;-76
2021/11/25 02:28:19;;;;;;;2.20;2.10;;;;;;;5.73;80.35;100753.53;5156079;27;20201;-75
2021/11/25 02:30:46;;;;;;;2.40;2.20;;;;;;;5.73;81.14;100730.25;5156577;27;20653;-76
2021/11/25 02:33:13;;;;;;;3.33;2.33;;;;;;;5.74;81.02;100731.94;5156248;27;20219;-75
2021/11/25 02:35:40;;;;;;;2.50;2.30;;;;;;;5.71;80.99;100706.91;5156148;27;20208;-76
2021/11/25 02:38:09;;;;;;;2.23;2.10;;;;;;;5.76;81.00;100691.38;5156444;27;20243;-75
2021/11/25 02:40:38;;;;;;;2.17;1.97;;;;;;;5.77;81.03;100700.91;5155675;27;20204;-75
2021/11/25 02:43:07;;;;;;;4.77;2.47;;;;;;;5.68;81.75;100678.38;5155761;27;20661;-75
2021/11/25 02:45:46;;;;;;;2.57;2.37;;;;;;;5.69;80.83;100684.44;5155982;27;20207;-76
2021/11/25 02:48:13;;;;;;;2.80;2.60;;;;;;;5.68;80.58;100712.06;5156259;27;20248;-76
2021/11/25 02:50:40;;;;;;;2.60;2.23;;;;;;;5.69;81.13;100713.81;5150357;27;20236;-76
2021/11/25 02:53:08;;;;;;;2.07;1.97;;;;;;;5.71;81.32;100693.97;5155499;27;20245;-76
2021/11/25 02:55:35;;;;;;;3.27;2.30;;;;;;;5.73;82.08;100660.31;5156222;27;20200;-75
2021/11/25 02:58:01;;;;;;;2.20;1.63;;;;;;;5.64;81.79;100674.06;5155582;27;20274;-75
2021/11/25 03:00:32;;;;;;;3.00;1.70;;;;;;;5.65;81.73;100662.84;5156053;27;20194;-75
2021/11/25 03:03:00;;;;;;;2.30;2.10;;;;;;;5.68;81.71;100646.47;5155882;27;20223;-76
2021/11/25 03:05:28;;;;;;;2.60;2.03;;;;;;;5.68;81.69;100668.03;5155754;27;20196;-75
2021/11/25 03:07:55;;;;;;;2.50;2.30;;;;;;;5.69;81.01;100690.50;5155984;27;20196;-75
2021/11/25 03:10:23;;;;;;;1.97;1.83;;;;;;;5.67;81.28;100666.31;5155966;27;20240;-76
2021/11/25 03:12:50;;;;;;;2.27;1.97;;;;;;;5.65;81.53;100659.38;5155244;27;20550;-76
2021/11/25 03:15:16;;;;;;;2.40;2.03;;;;;;;5.65;81.41;100661.97;5155278;27;20196;-76
2021/11/25 03:17:42;;;;;;;2.87;2.10;;;;;;;5.65;82.05;100649.00;5155649;27;20710;-75
2021/11/25 03:20:09;;;;;;;2.03;1.83;;;;;;;5.66;82.28;100635.22;5155255;27;20241;-76
2021/11/25 03:22:35;;;;;;;2.77;2.00;;;;;;;5.63;82.19;100636.09;5155217;27;20288;-75
2021/11/25 03:25:02;;;;;;;1.80;1.70;;;;;;;5.64;81.84;100626.59;5155303;27;20220;-76
2021/11/25 03:27:29;;;;;;;2.43;1.90;;;;;;;5.64;82.81;100603.28;5155406;27;20546;-76
2021/11/25 03:29:56;;;;;;;4.40;2.40;;;;;;;5.62;82.71;100589.47;5155220;27;20743;-75
2021/11/25 03:32:22;;;;;;;2.30;2.10;;;;;;;5.57;82.79;100599.81;5154946;27;20199;-75
2021/11/25 03:34:49;;;;;;;3.87;2.73;;;;;;;5.56;82.06;100608.44;5155233;27;20225;-75
2021/11/25 03:37:15;;;;;;;2.40;2.20;;;;;;;5.58;82.08;100625.69;5154731;27;20706;-76
2021/11/25 03:39:42;;;;;;;2.53;2.33;;;;;;;5.62;81.53;100649.88;5155084;27;20669;-76
2021/11/25 03:42:08;;;;;;;3.27;2.57;;;;;;;5.62;81.04;100654.19;5154452;27;20230;-76
2021/11/25 03:44:36;;;;;;;4.70;2.57;;;;;;;5.65;81.18;100644.72;5154879;27;20628;-76
2021/11/25 03:47:02;;;;;;;4.23;2.60;;;;;;;5.60;80.07;100671.47;5155040;27;20204;-75
2021/11/25 03:49:28;;;;;;;2.67;2.47;;;;;;;5.63;80.71;100669.75;5151638;27;20208;-75
2021/11/25 03:51:55;;;;;;;7.60;2.23;;;;;;;5.66;81.52;100643.00;5154891;27;20196;-75
2021/11/25 03:54:21;;;;;;;2.10;1.90;;;;;;;5.65;81.30;100638.66;5154839;27;20220;-75
2021/11/25 03:56:47;;;;;;;2.43;2.00;;;;;;;5.65;80.18;100644.72;5154786;27;20602;-75
2021/11/25 03:59:14;;;;;;;3.07;2.87;;;;;;;5.61;80.14;100666.28;5154274;27;20652;-76
2021/11/25 04:01:41;;;;;;;3.60;2.73;;;;;;;5.61;80.09;100679.25;5154493;27;20201;-75
2021/11/25 04:04:10;;;;;;;2.83;2.30;;;;;;;5.54;81.09;100657.59;5154988;27;20216;-76
2021/11/25 04:06:36;;;;;;;2.50;2.30;;;;;;;5.55;80.27;100661.94;5154646;27;20201;-76
2021/11/25 04:09:03;;;;;;;3.87;3.03;;;;;;;5.61;79.96;100668.00;5154709;27;20196;-76
2021/11/25 04:11:29;;;;;;;3.97;2.93;;;;;;;5.53;79.90;100684.38;5154321;27;20267;-75
2021/11/25 04:13:56;;;;;;;3.30;3.00;;;;;;;5.54;78.97;100722.34;5154087;27;20222;-75
2021/11/25 04:16:22;;;;;;;2.40;2.10;;;;;;;5.57;79.52;100700.78;5154339;27;20207;-75
2021/11/25 04:18:50;;;;;;;2.90;2.70;;;;;;;5.54;79.95;100682.63;5154480;27;20203;-75
2021/11/25 04:21:16;;;;;;;2.73;2.53;;;;;;;5.52;79.79;100680.03;5154308;27;20229;-76
2021/11/25 04:23:43;;;;;;;2.20;2.00;;;;;;;5.55;79.33;100682.66;5153994;27;20224;-75
2021/11/25 04:26:09;;;;;;;2.40;2.30;;;;;;;5.56;80.93;100650.72;5153928;27;20259;-75
2021/11/25 04:28:36;;;;;;;2.43;2.27;;;;;;;5.57;80.43;100646.41;5153615;27;20244;-75
2021/11/25 04:36:32;;;;;;;2.33;2.13;;;;;;;5.58;80.61;100625.69;5154159;27;20247;-76
2021/11/25 04:38:58;;;;;;;2.40;2.20;;;;;;;5.58;80.82;100614.47;5145966;27;20195;-75
2021/11/25 04:41:25;;;;;;;2.13;2.03;;;;;;;5.58;80.05;100622.25;5154267;27;20200;-76
2021/11/25 04:43:52;;;;;;;2.53;2.20;;;;;;;5.62;80.41;100628.31;5153066;27;20988;-76
2021/11/25 04:46:18;;;;;;;3.17;2.70;;;;;;;5.58;79.56;100638.63;5154042;27;20195;-76
2021/11/25 04:48:45;;;;;;;2.97;2.77;;;;;;;5.56;79.82;100647.25;5153539;27;20199;-75
2021/11/25 04:51:11;;;;;;;3.33;3.03;;;;;;;5.58;79.46;100650.72;5148217;27;20203;-75
2021/11/25 04:53:39;;;;;;;3.37;2.47;;;;;;;5.53;80.96;100614.47;5153547;27;20220;-75
2021/11/25 04:56:06;;;;;;;2.90;2.70;;;;;;;5.53;81.24;100601.53;5145584;27;20192;-75
2021/11/25 04:58:33;;;;;;;2.70;2.50;;;;;;;5.54;81.02;100595.47;5153248;27;20758;-75
2021/11/25 05:00:59;;;;;;;3.60;2.23;;;;;;;5.50;82.03;100575.59;5153533;27;20197;-76
2021/11/25 05:03:26;;;;;;;2.67;2.43;;;;;;;5.50;80.91;100593.72;5153161;27;20211;-75
2021/11/25 05:05:54;;;;;;;3.30;3.10;;;;;;;5.52;80.25;100604.94;5153193;27;20617;-76
2021/11/25 05:08:21;;;;;;;2.83;2.60;;;;;;;5.48;79.99;100628.25;5153801;27;20253;-76
2021/11/25 05:10:49;;;;;;;3.03;2.80;;;;;;;5.50;81.05;100591.13;5153464;27;20232;-78
2021/11/25 05:13:15;;;;;;;4.00;3.67;;;;;;;5.50;80.52;100598.91;5153261;27;20630;-76
2021/11/25 05:15:42;;;;;;;3.63;3.33;;;;;;;5.41;79.30;100647.19;5153346;27;20257;-76
2021/11/25 05:18:09;;;;;;;3.10;2.90;;;;;;;5.43;81.05;100612.69;5153173;27;20228;-75
2021/11/25 05:20:36;;;;;;;2.93;2.73;;;;;;;5.42;81.63;100573.84;5152514;27;20210;-76
2021/11/25 05:23:02;;;;;;;4.00;3.70;;;;;;;5.37;80.20;100577.28;5152974;27;20222;-75
2021/11/25 05:25:29;;;;;;;4.53;4.23;;;;;;;5.37;80.72;100616.13;5153177;27;20722;-76
2021/11/25 05:27:57;;;;;;;3.63;3.33;;;;;;;5.40;80.56;100601.47;5087947;22;20239;-76
2021/11/25 05:30:30;;;;;;;4.50;4.20;;;;;;;5.44;80.84;100590.25;5047280;28;20256;-77
2021/11/25 05:32:57;;;;;;;4.27;3.97;;;;;;;5.43;81.32;100580.75;5050416;28;20669;-76
2021/11/25 05:35:23;;;;;;;5.07;4.67;;;;;;;5.46;80.85;100585.94;5039609;28;20250;-77
2021/11/25 05:37:50;;;;;;;5.17;4.83;;;;;;;5.38;79.33;100623.00;5038194;28;20231;-77
2021/11/25 05:40:16;;;;;;;5.33;4.93;;;;;;;5.39;80.23;100613.50;5042511;28;20211;-77
2021/11/25 05:42:44;;;;;;;5.07;4.67;;;;;;;5.36;79.08;100634.22;5041470;28;20244;-76
2021/11/25 05:45:14;;;;;;;5.60;4.67;;;;;;;5.34;80.01;100615.22;5044128;28;20828;-77
2021/11/25 05:47:42;;;;;;;5.43;5.03;;;;;;;5.35;80.44;100619.53;5051148;28;20265;-76
2021/11/25 05:50:12;;;;;;;4.77;4.47;;;;;;;5.40;80.26;100606.63;5034079;28;20675;-77
2021/11/25 05:52:39;;;;;;;5.80;5.40;;;;;;;5.36;79.65;100619.53;5030936;28;20206;-76
2021/11/25 05:55:06;;;;;;;6.00;5.47;;;;;;;5.13;79.00;100631.47;5039411;28;20227;-77
2021/11/25 05:57:33;;;;;;;6.40;5.90;;;;;;;5.21;79.93;100601.34;5022857;28;20282;-77
2021/11/25 05:59:59;;;;;;;6.23;5.73;;;;;;;5.28;80.55;100585.00;5038490;28;20585;-77
2021/11/25 06:02:27;;;;;;;6.23;5.83;;;;;;;5.28;80.54;100585.00;5049978;28;20289;-76
2021/11/25 06:04:53;;;;;;;5.40;4.90;;;;;;;5.27;80.29;100587.56;5038526;28;20208;-77
2021/11/25 06:07:19;;;;;;;6.07;5.67;;;;;;;5.24;80.31;100582.41;5040846;28;20218;-77
2021/11/25 06:09:46;;;;;;;6.13;5.63;;;;;;;5.26;80.99;100554.81;5031429;28;20211;-77
2021/11/25 06:12:12;;;;;;;6.03;5.50;;;;;;;5.30;81.27;100534.09;5046882;28;20203;-77
2021/11/25 06:14:38;;;;;;;6.37;5.77;;;;;;;5.33;80.31;100543.59;5050072;28;20199;-77
2021/11/25 06:17:05;;;;;;;5.93;5.43;;;;;;;5.35;81.34;100523.75;5035722;28;20231;-76
2021/11/25 06:19:33;;;;;;;6.37;5.87;;;;;;;5.35;81.62;100514.31;5048084;28;20627;-76
2021/11/25 06:22:00;;;;;;;4.87;4.53;;;;;;;5.33;81.88;100505.66;5050328;28;20257;-77
2021/11/25 06:24:26;;;;;;;6.23;5.53;;;;;;;5.37;81.59;100489.28;5033114;28;20752;-77
2021/11/25 06:26:53;;;;;;;5.33;4.93;;;;;;;5.32;81.94;100482.34;5032709;28;20232;-77
2021/11/25 06:29:19;;;;;;;5.90;5.40;;;;;;;5.27;81.06;100513.41;5039910;28;20235;-79
2021/11/25 06:31:46;;;;;;;5.53;5.03;;;;;;;5.32;82.31;100488.38;5041743;28;20239;-78
2021/11/25 06:34:13;;;;;;;5.57;5.17;;;;;;;5.33;82.30;100476.31;5036914;28;20200;-78
2021/11/25 06:36:40;;;;;;;5.40;5.00;;;;;;;5.35;81.92;100480.66;5050497;28;20724;-79
2021/11/25 06:39:07;;;;;;;4.97;4.57;;;;;;;5.33;82.47;100486.66;5043717;28;20266;-79
2021/11/25 06:41:34;;;;;;;5.10;4.70;;;;;;;5.39;82.65;100473.72;5041145;28;20753;-78
2021/11/25 06:44:00;;;;;;;5.13;4.50;;;;;;;5.38;82.98;100472.88;5038480;28;20223;-79
2021/11/25 06:46:27;;;;;;;6.13;5.63;;;;;;;5.22;80.49;100545.28;5033881;28;20221;-78
2021/11/25 06:48:53;;;;;;;7.20;6.47;;;;;;;5.30;81.12;100539.28;5036165;28;20197;-78
2021/11/25 06:51:19;;;;;;;7.00;6.50;;;;;;;5.35;81.18;100526.34;5038387;28;20257;-78
2021/11/25 06:53:47;;;;;;;6.60;6.10;;;;;;;5.26;79.52;100589.31;5035691;28;20257;-78
2021/11/25 06:56:13;;;;;;;6.03;5.63;;;;;;;5.30;80.77;100551.38;5037948;28;20200;-78
2021/11/25 06:58:40;;;;;;;7.97;7.27;;;;;;;5.31;81.41;100503.91;5035133;28;20259;-77
2021/11/25 07:01:07;;;;;;;6.30;5.80;;;;;;;5.32;81.22;100506.50;5034112;28;20626;-78
2021/11/25 07:03:34;;;;;;;6.70;6.17;;;;;;;5.33;81.18;100512.53;5033891;28;20209;-77
2021/11/25 07:06:01;;;;;;;6.60;6.10;;;;;;;5.23;79.19;100550.44;5036908;28;20203;-78
2021/11/25 07:08:27;;;;;;;7.30;6.67;;;;;;;5.25;79.46;100589.28;5035171;28;20191;-78
2021/11/25 07:10:56;;;;;;;6.10;5.60;;;;;;;5.22;81.03;100542.72;5040397;28;20259;-78
2021/11/25 07:13:22;;;;;;;5.77;5.10;;;;;;;5.20;81.87;100503.03;5037827;28;20211;-79
2021/11/25 07:15:48;;;;;;;5.67;5.13;;;;;;;5.10;80.53;100536.59;5032744;28;20204;-78
2021/11/25 07:18:15;;;;;;;6.13;5.43;;;;;;;5.20;80.80;100540.09;5035626;28;20254;-78
2021/11/25 07:20:41;;;;;;;7.43;6.70;;;;;;;5.26;80.82;100540.13;5035679;28;20255;-75
2021/11/25 07:23:07;;;;;;;5.87;5.37;;;;;;;5.33;80.82;100517.72;5031335;28;20670;-76
2021/11/25 07:25:34;;;;;;;5.70;5.20;;;;;;;5.34;81.39;100511.69;5034000;28;20258;-78
2021/11/25 07:28:02;;;;;;;5.07;4.67;;;;;;;5.32;82.00;100488.38;5033576;28;20719;-76
2021/11/25 07:30:28;;;;;;;5.83;5.43;;;;;;;5.33;81.67;100486.66;5037222;28;20201;-77
2021/11/25 07:32:55;;;;;;;6.97;6.37;;;;;;;5.32;81.60;100488.38;5033385;28;20204;-77
2021/11/25 07:35:23;;;;;;;6.50;5.90;;;;;;;5.37;81.19;100506.50;5038756;28;20206;-76
2021/11/25 07:37:52;;;;;;;7.70;7.00;;;;;;;5.22;80.14;100511.66;5035773;28;20621;-77
2021/11/25 07:40:20;;;;;;;6.90;6.33;;;;;;;5.23;79.25;100572.88;5033275;28;20207;-75
2021/11/25 07:42:46;;;;;;;7.57;7.00;;;;;;;5.31;80.71;100546.22;5036220;28;20591;-76
2021/11/25 07:45:14;;;;;;;6.57;6.07;;;;;;;5.38;81.19;100503.06;5040001;28;20203;-76
2021/11/25 07:47:42;;;;;;;7.87;7.17;;;;;;;5.38;81.49;100514.28;5032750;28;20277;-77
2021/11/25 07:50:11;;;;;;;7.63;7.00;;;;;;;5.37;81.24;100502.22;5035108;28;20230;-78
2021/11/25 07:52:38;;;;;;;6.70;6.17;;;;;;;5.40;80.43;100506.53;5032631;28;20205;-77
2021/11/25 07:55:06;;;;;;;7.00;6.50;;;;;;;5.42;80.86;100509.13;5036351;28;20725;-77
2021/11/25 07:57:33;;;;;;;8.43;7.63;;;;;;;5.42;79.67;100528.13;5032329;28;20281;-78
2021/11/25 07:59:59;;;;;;;7.40;6.80;;;;;;;5.46;80.17;100523.81;5032874;28;20272;-76
2021/11/25 08:02:27;;;;;;;7.20;6.60;;;;;;;5.47;80.77;100508.28;5033923;28;20742;-77
2021/11/25 08:04:53;;;;;;;7.90;7.23;;;;;;;5.46;80.49;100509.16;5037069;28;20208;-76
2021/11/25 08:07:20;;;;;;;8.87;8.17;;;;;;;5.45;79.87;100528.13;5035724;28;20226;-77
2021/11/25 08:09:46;;;;;;;8.60;7.90;;;;;;;5.49;79.78;100542.81;5035325;28;20197;-77
2021/11/25 08:12:13;;;;;;;8.93;8.13;;;;;;;5.56;79.65;100535.94;5033103;28;20305;-75
2021/11/25 08:14:39;;;;;;;8.37;7.67;;;;;;;5.49;79.59;100550.59;5033943;28;20203;-74
2021/11/25 08:17:08;;;;;;;8.60;7.80;;;;;;;5.51;79.77;100533.34;5033572;28;20218;-75
2021/11/25 08:19:36;;;;;;;7.27;6.67;;;;;;;5.57;80.33;100502.28;5033890;28;20316;-76
2021/11/25 08:22:03;;;;;;;8.17;7.37;;;;;;;5.48;78.64;100550.56;5032554;28;20208;-76
2021/11/25 08:24:29;;;;;;;8.63;7.93;;;;;;;5.45;78.24;100563.50;5030107;28;20662;-75
2021/11/25 08:26:56;;;;;;;9.00;8.30;;;;;;;5.44;78.65;100561.78;5032574;28;20282;-74
2021/11/25 08:29:23;;;;;;;8.97;8.37;;;;;;;5.48;78.45;100550.56;5032971;28;20244;-76
2021/11/25 08:31:50;;;;;;;8.87;8.17;;;;;;;5.49;79.24;100549.69;5029974;28;20194;-77
2021/11/25 08:34:16;;;;;;;8.40;7.60;;;;;;;5.43;78.89;100552.28;5032006;28;20211;-76
2021/11/25 08:36:44;;;;;;;9.47;8.67;;;;;;;5.55;78.82;100554.94;5032579;28;20228;-77
2021/11/25 08:39:10;;;;;;;8.97;8.27;;;;;;;5.61;79.05;100548.88;5029833;28;20243;-76
2021/11/25 08:41:37;;;;;;;9.00;8.30;;;;;;;5.65;78.62;100554.09;5031210;28;20211;-76
2021/11/25 08:44:04;;;;;;;8.63;7.90;;;;;;;5.55;78.26;100565.28;5032161;28;20222;-76
2021/11/25 08:46:30;;;;;;;9.43;8.63;;;;;;;5.35;79.14;100553.13;5031722;28;20240;-76
2021/11/25 08:48:57;;;;;;;9.70;8.80;;;;;;;5.30;79.55;100541.00;5033863;28;20220;-77
2021/11/25 08:51:24;;;;;;;10.10;9.30;;;;;;;5.35;79.16;100529.81;5039248;28;20208;-76
2021/11/25 08:53:52;;;;;;;10.40;9.60;;;;;;;5.22;80.72;100493.53;5036303;28;20242;-76
2021/11/25 08:56:18;;;;;;;10.00;9.20;;;;;;;5.08;79.34;100525.38;5032648;28;20200;-75
2021/11/25 08:58:44;;;;;;;10.43;9.63;;;;;;;5.27;79.68;100517.69;5034419;28;20216;-76
2021/11/25 09:01:11;;;;;;;11.90;11.00;;;;;;;5.33;78.96;100530.66;5035747;28;20441;-76
2021/11/25 09:03:37;;;;;;;10.27;9.47;;;;;;;5.21;78.95;100535.78;5033965;28;20697;-76
2021/11/25 09:06:04;;;;;;;10.83;9.90;;;;;;;5.39;78.49;100522.91;5026838;28;20211;-76
2021/11/25 09:08:30;;;;;;;10.53;9.73;;;;;;;5.51;78.65;100516.91;5032526;28;20671;-76
2021/11/25 09:10:58;;;;;;;11.13;10.13;;;;;;;5.57;79.08;100524.72;5032880;28;20205;-76
2021/11/25 09:13:24;;;;;;;11.07;10.17;;;;;;;5.55;79.27;100516.09;5034413;28;20202;-76
2021/11/25 09:15:51;;;;;;;11.27;10.37;;;;;;;5.35;78.28;100532.41;5032675;28;20572;-76
2021/11/25 09:18:18;;;;;;;11.13;10.13;;;;;;;5.38;78.24;100535.00;5034731;28;20260;-76
2021/11/25 09:20:45;;;;;;;11.93;11.03;;;;;;;5.19;78.36;100543.53;5031518;28;20258;-76
2021/11/25 09:23:14;;;;;;;12.93;11.87;;;;;;;4.97;78.86;100533.09;5033450;28;20701;-76
2021/11/25 09:25:42;;;;;;;12.43;11.43;;;;;;;4.83;79.52;100520.94;5033893;28;20195;-76
2021/11/25 09:28:13;;;;;;;13.43;12.23;;;;;;;4.79;80.80;100476.09;5033463;28;20220;-77
2021/11/25 09:30:39;;;;;;;13.53;12.30;;;;;;;4.68;80.68;100470.00;5032790;28;20190;-78
2021/11/25 09:33:07;;;;;;;13.63;12.53;;;;;;;4.54;81.90;100423.41;5030919;28;20212;-75
2021/11/25 09:35:34;;;;;;;14.00;12.77;;;;;;;4.48;81.77;100418.19;5031372;28;20215;-75
2021/11/25 09:38:00;;;;;;;16.93;15.23;;;;;;;4.50;81.20;100434.56;5030906;28;20708;-77
2021/11/25 09:40:28;;;;;;;17.67;16.07;;;;;;;4.46;81.08;100446.63;5031427;28;20280;-76
2021/11/25 09:42:58;;;;;;;16.67;15.20;;;;;;;4.51;81.11;100428.53;5030539;28;20239;-76
2021/11/25 09:45:26;;;;;;;15.23;14.03;;;;;;;4.61;81.11;100424.28;5031621;28;20257;-76
2021/11/25 09:47:56;;;;;;;14.80;13.60;;;;;;;4.57;80.48;100467.34;5030822;28;20221;-75
2021/11/25 09:50:25;;;;;;;15.37;13.97;;;;;;;4.55;81.53;100449.25;5031169;28;20199;-77
2021/11/25 09:52:55;;;;;;;15.00;13.57;;;;;;;4.64;80.95;100445.84;5028635;28;20203;-77
2021/11/25 09:55:22;;;;;;;18.00;16.37;;;;;;;4.64;79.69;100474.28;5031497;28;20199;-75
2021/11/25 09:57:50;;;;;;;18.20;16.60;;;;;;;4.70;79.29;100514.84;5030955;28;20209;-76
2021/11/25 10:00:17;;;;;;;20.53;15.63;;;;;;;4.80;79.09;100516.63;5031009;28;20225;-78
2021/11/25 10:02:45;;;;;;;18.80;17.17;;;;;;;4.92;78.69;100516.69;5031494;28;20276;-77
2021/11/25 10:05:13;;;;;;;18.10;16.43;;;;;;;5.02;78.92;100540.03;5028045;28;20206;-78
2021/11/25 10:07:41;;;;;;;18.27;16.70;;;;;;;5.08;78.32;100553.84;5031132;28;20219;-77
2021/11/25 10:10:26;;;;;;;18.23;16.70;;;;;;;5.14;77.45;100571.13;5031087;28;20352;-77
2021/11/25 10:13:02;;;;;;;17.23;15.83;;;;;;;5.10;78.74;100553.88;5028962;28;20193;-77
2021/11/25 10:15:32;;;;;;;18.83;17.23;;;;;;;5.10;77.91;100554.72;5030780;28;20186;-78
2021/11/25 10:18:03;;;;;;;17.73;16.17;;;;;;;5.02;78.40;100532.25;5030671;28;20639;-79
2021/11/25 10:20:32;;;;;;;17.87;16.27;;;;;;;4.92;78.25;100541.69;5028308;28;20272;-77
2021/11/25 10:23:16;;;;;;;18.73;17.07;;;;;;;5.05;79.13;100506.41;5032167;28;20273;-77
2021/11/25 10:25:45;;;;;;;18.53;16.70;;;;;;;5.08;78.50;100515.03;5033795;28;20216;-77
2021/11/25 10:28:27;;;;;;;19.17;17.63;;;;;;;5.00;78.94;100493.44;5032053;28;20283;-77
2021/11/25 10:31:00;;;;;;;19.53;17.70;;;;;;;5.03;78.82;100498.63;5032542;28;20948;-78
2021/11/25 10:33:31;;;;;;;18.87;17.07;;;;;;;5.05;79.45;100491.72;5034006;28;20673;-77
2021/11/25 10:36:26;;;;;;;24.97;20.00;;;;;;;5.15;79.64;100478.00;5034468;28;20199;-75
2021/11/25 10:39:04;;;;;;;17.07;15.50;;;;;;;5.33;78.02;100494.44;5032185;28;20268;-78
2021/11/25 10:41:31;;;;;;;19.97;16.43;;;;;;;5.34;78.47;100503.94;5032038;28;20195;-76
2021/11/25 10:44:09;;;;;;;17.33;16.03;;;;;;;5.25;78.21;100535.84;5034481;28;20203;-77
2021/11/25 10:46:51;;;;;;;19.13;17.47;;;;;;;5.07;78.64;100507.25;5032296;28;20638;-77
2021/11/25 10:49:20;;;;;;;18.27;16.77;;;;;;;5.08;78.87;100488.31;5032764;28;20197;-74
2021/11/25 10:51:47;;;;;;;16.50;14.90;;;;;;;5.18;78.61;100478.00;5034161;28;20276;-77
2021/11/25 10:54:16;;;;;;;15.27;14.07;;;;;;;5.22;77.33;100517.69;5034384;28;20194;-76
2021/11/25 10:56:46;;;;;;;15.70;14.40;;;;;;;5.22;78.72;100498.72;5034501;28;20222;-78
2021/11/25 10:59:16;;;;;;;17.07;15.77;;;;;;;5.32;77.96;100495.31;5031377;28;20222;-76
2021/11/25 11:01:45;;;;;;;16.73;15.27;;;;;;;5.34;78.47;100489.25;5034172;28;20732;-77
2021/11/25 11:04:13;;;;;;;17.17;15.87;;;;;;;5.44;77.77;100497.06;5032185;28;20208;-76
2021/11/25 11:06:43;;;;;;;17.63;16.13;;;;;;;5.31;77.30;100519.44;5034140;28;20254;-77
2021/11/25 11:09:29;;;;;;;17.67;15.97;;;;;;;5.43;78.65;100480.69;5033689;28;20197;-76
2021/11/25 11:12:18;;;;;;;19.43;17.70;;;;;;;5.37;78.47;100485.81;5032089;28;20254;-77
2021/11/25 11:14:49;;;;;;;16.50;15.10;;;;;;;5.22;79.02;100485.78;5033127;28;20671;-77
2021/11/25 11:17:23;;;;;;;18.47;16.63;;;;;;;5.22;78.70;100483.19;5032103;28;20231;-77
2021/11/25 11:20:11;;;;;;;18.57;17.07;;;;;;;5.45;77.68;100481.53;5033861;28;20211;-78
2021/11/25 11:22:39;;;;;;;18.13;16.50;;;;;;;5.31;78.00;100509.09;5034170;28;20251;-77
2021/11/25 11:25:07;;;;;;;16.23;14.83;;;;;;;5.40;77.98;100500.50;5033603;28;20202;-77
2021/11/25 11:27:34;;;;;;;16.53;15.17;;;;;;;5.41;78.43;100502.22;5068053;22;20237;-77
2021/11/25 11:30:00;;;;;;;16.47;15.13;;;;;;;5.39;77.55;100509.97;5067945;28;20202;-77
2021/11/25 11:32:27;;;;;;;16.33;15.03;;;;;;;5.31;77.31;100529.78;5073365;28;20254;-77
2021/11/25 11:34:54;;;;;;;14.60;13.40;;;;;;;5.16;77.61;100515.06;5072835;28;20262;-77
2021/11/25 11:37:21;;;;;;;16.70;15.17;;;;;;;5.18;77.71;100500.41;5073696;28;20231;-76